sensor_id;sensor_type;location;lat;lon;timestamp;noise_LAeq;noise_LA_min;noise_LA_max;noise_LA01;noise_LA95
76217;Laerm;65010;50.190;18.930;2023-05-07T00:02:37;40.75;37.59;46.54;;
76217;Laerm;65010;50.190;18.930;2023-05-07T00:05:45;35.75;33.79;41.28;;
76217;Laerm;65010;50.190;18.930;2023-05-07T00:08:52;35.06;33.81;36.31;;
76217;Laerm;65010;50.190;18.930;2023-05-07T00:12:02;35.08;33.79;37.41;;
76217;Laerm;65010;50.190;18.930;2023-05-07T00:15:12;35.08;33.92;36.36;;
76217;Laerm;65010;50.190;18.930;2023-05-07T00:18:18;35.08;33.90;36.33;;
76217;Laerm;65010;50.190;18.930;2023-05-07T00:21:25;35.07;33.83;36.45;;
76217;Laerm;65010;50.190;18.930;2023-05-07T00:24:31;35.03;33.80;36.18;;
76217;Laerm;65010;50.190;18.930;2023-05-07T00:27:42;35.05;33.65;37.09;;
76217;Laerm;65010;50.190;18.930;2023-05-07T00:30:48;37.60;33.70;49.77;;
76217;Laerm;65010;50.190;18.930;2023-05-07T00:33:55;39.92;33.85;60.11;;
76217;Laerm;65010;50.190;18.930;2023-05-07T00:37:01;35.07;33.91;40.78;;
76217;Laerm;65010;50.190;18.930;2023-05-07T00:40:09;35.06;33.98;36.19;;
76217;Laerm;65010;50.190;18.930;2023-05-07T00:43:18;35.66;34.07;45.46;;
76217;Laerm;65010;50.190;18.930;2023-05-07T00:46:25;34.94;33.10;38.13;;
76217;Laerm;65010;50.190;18.930;2023-05-07T00:49:39;34.63;33.42;37.72;;
76217;Laerm;65010;50.190;18.930;2023-05-07T00:52:46;35.12;33.54;39.48;;
76217;Laerm;65010;50.190;18.930;2023-05-07T00:55:52;35.13;33.83;38.36;;
76217;Laerm;65010;50.190;18.930;2023-05-07T00:59:02;34.95;33.74;36.33;;
76217;Laerm;65010;50.190;18.930;2023-05-07T01:02:08;34.96;33.78;36.15;;
76217;Laerm;65010;50.190;18.930;2023-05-07T01:05:20;35.00;33.81;36.11;;
76217;Laerm;65010;50.190;18.930;2023-05-07T01:08:30;35.01;33.87;36.20;;
76217;Laerm;65010;50.190;18.930;2023-05-07T01:11:40;37.31;33.53;55.98;;
76217;Laerm;65010;50.190;18.930;2023-05-07T01:14:49;40.73;33.42;61.44;;
76217;Laerm;65010;50.190;18.930;2023-05-07T01:17:56;35.41;33.54;43.00;;
76217;Laerm;65010;50.190;18.930;2023-05-07T01:21:11;37.09;33.88;50.58;;
76217;Laerm;65010;50.190;18.930;2023-05-07T01:24:23;36.28;33.35;52.90;;
76217;Laerm;65010;50.190;18.930;2023-05-07T01:27:29;34.87;33.50;36.24;;
76217;Laerm;65010;50.190;18.930;2023-05-07T01:30:49;35.05;33.84;36.15;;
76217;Laerm;65010;50.190;18.930;2023-05-07T01:33:59;41.62;33.93;61.39;;
76217;Laerm;65010;50.190;18.930;2023-05-07T01:37:07;35.19;33.93;39.55;;
76217;Laerm;65010;50.190;18.930;2023-05-07T01:40:16;35.19;34.07;42.69;;
76217;Laerm;65010;50.190;18.930;2023-05-07T01:43:24;35.50;33.94;47.44;;
76217;Laerm;65010;50.190;18.930;2023-05-07T01:46:32;37.11;33.90;51.75;;
76217;Laerm;65010;50.190;18.930;2023-05-07T01:49:40;37.22;34.15;53.24;;
76217;Laerm;65010;50.190;18.930;2023-05-07T01:52:52;37.49;34.18;52.54;;
76217;Laerm;65010;50.190;18.930;2023-05-07T01:56:06;37.42;33.99;51.66;;
76217;Laerm;65010;50.190;18.930;2023-05-07T01:59:14;37.37;33.77;52.02;;
76217;Laerm;65010;50.190;18.930;2023-05-07T02:02:20;37.96;33.50;52.70;;
76217;Laerm;65010;50.190;18.930;2023-05-07T02:05:29;37.85;33.60;49.69;;
76217;Laerm;65010;50.190;18.930;2023-05-07T02:08:58;38.92;34.15;53.21;;
76217;Laerm;65010;50.190;18.930;2023-05-07T02:12:10;38.90;34.07;51.79;;
76217;Laerm;65010;50.190;18.930;2023-05-07T02:15:17;39.90;33.80;52.50;;
76217;Laerm;65010;50.190;18.930;2023-05-07T02:18:25;40.41;33.95;52.53;;
76217;Laerm;65010;50.190;18.930;2023-05-07T02:21:32;40.56;33.76;54.42;;
76217;Laerm;65010;50.190;18.930;2023-05-07T02:24:38;42.22;33.99;61.67;;
76217;Laerm;65010;50.190;18.930;2023-05-07T02:27:47;40.02;33.91;56.82;;
76217;Laerm;65010;50.190;18.930;2023-05-07T02:30:54;38.47;33.89;52.54;;
76217;Laerm;65010;50.190;18.930;2023-05-07T02:34:02;43.85;33.89;56.41;;
76217;Laerm;65010;50.190;18.930;2023-05-07T02:37:14;47.37;33.94;64.25;;
76217;Laerm;65010;50.190;18.930;2023-05-07T02:40:21;44.68;33.76;59.69;;
76217;Laerm;65010;50.190;18.930;2023-05-07T02:43:30;41.17;34.06;56.21;;
76217;Laerm;65010;50.190;18.930;2023-05-07T02:46:36;40.30;34.38;51.95;;
76217;Laerm;65010;50.190;18.930;2023-05-07T02:49:46;41.03;33.84;58.09;;
76217;Laerm;65010;50.190;18.930;2023-05-07T02:52:53;43.02;34.07;56.65;;
76217;Laerm;65010;50.190;18.930;2023-05-07T02:56:01;41.49;34.12;57.06;;
76217;Laerm;65010;50.190;18.930;2023-05-07T02:59:11;38.77;35.73;55.36;;
76217;Laerm;65010;50.190;18.930;2023-05-07T03:02:17;38.05;35.83;48.62;;
76217;Laerm;65010;50.190;18.930;2023-05-07T03:05:27;37.77;35.85;43.74;;
76217;Laerm;65010;50.190;18.930;2023-05-07T03:08:33;38.38;36.13;47.92;;
76217;Laerm;65010;50.190;18.930;2023-05-07T03:11:40;38.04;36.08;43.40;;
76217;Laerm;65010;50.190;18.930;2023-05-07T03:14:48;38.16;36.09;45.94;;
76217;Laerm;65010;50.190;18.930;2023-05-07T03:17:55;38.07;36.44;42.14;;
76217;Laerm;65010;50.190;18.930;2023-05-07T03:21:02;38.76;36.15;48.02;;
76217;Laerm;65010;50.190;18.930;2023-05-07T03:24:09;37.48;33.49;47.97;;
76217;Laerm;65010;50.190;18.930;2023-05-07T03:27:14;35.76;33.55;46.71;;
76217;Laerm;65010;50.190;18.930;2023-05-07T03:30:24;36.62;33.70;48.21;;
76217;Laerm;65010;50.190;18.930;2023-05-07T03:33:32;35.18;33.55;41.55;;
76217;Laerm;65010;50.190;18.930;2023-05-07T03:36:39;35.63;33.44;52.31;;
76217;Laerm;65010;50.190;18.930;2023-05-07T03:39:47;35.15;33.44;46.75;;
76217;Laerm;65010;50.190;18.930;2023-05-07T03:42:54;35.27;33.44;45.46;;
76217;Laerm;65010;50.190;18.930;2023-05-07T03:46:04;35.22;33.54;48.26;;
76217;Laerm;65010;50.190;18.930;2023-05-07T03:49:11;40.73;33.56;61.22;;
76217;Laerm;65010;50.190;18.930;2023-05-07T03:52:16;36.00;33.31;51.73;;
76217;Laerm;65010;50.190;18.930;2023-05-07T03:55:27;35.52;33.37;46.60;;
76217;Laerm;65010;50.190;18.930;2023-05-07T03:58:35;35.43;33.55;45.75;;
76217;Laerm;65010;50.190;18.930;2023-05-07T04:01:47;35.85;33.67;45.50;;
76217;Laerm;65010;50.190;18.930;2023-05-07T04:04:57;35.46;33.78;39.44;;
76217;Laerm;65010;50.190;18.930;2023-05-07T04:08:05;39.49;34.64;49.80;;
76217;Laerm;65010;50.190;18.930;2023-05-07T04:11:14;38.51;35.52;52.51;;
76217;Laerm;65010;50.190;18.930;2023-05-07T04:14:21;37.85;35.84;50.70;;
76217;Laerm;65010;50.190;18.930;2023-05-07T04:17:30;42.89;35.82;61.48;;
76217;Laerm;65010;50.190;18.930;2023-05-07T04:20:37;37.93;36.03;57.09;;
76217;Laerm;65010;50.190;18.930;2023-05-07T04:23:47;38.55;36.09;46.46;;
76217;Laerm;65010;50.190;18.930;2023-05-07T04:26:55;41.32;36.91;53.70;;
76217;Laerm;65010;50.190;18.930;2023-05-07T04:30:01;40.94;37.34;54.69;;
76217;Laerm;65010;50.190;18.930;2023-05-07T04:33:16;38.33;36.30;41.42;;
76217;Laerm;65010;50.190;18.930;2023-05-07T04:36:24;38.13;36.17;50.93;;
76217;Laerm;65010;50.190;18.930;2023-05-07T04:39:36;37.94;36.04;44.32;;
76217;Laerm;65010;50.190;18.930;2023-05-07T04:42:42;38.04;36.04;42.44;;
76217;Laerm;65010;50.190;18.930;2023-05-07T04:45:50;54.69;35.61;80.48;;
76217;Laerm;65010;50.190;18.930;2023-05-07T04:49:02;43.43;33.86;62.94;;
76217;Laerm;65010;50.190;18.930;2023-05-07T04:52:10;37.77;33.84;50.33;;
76217;Laerm;65010;50.190;18.930;2023-05-07T04:55:16;36.65;33.70;48.36;;
76217;Laerm;65010;50.190;18.930;2023-05-07T04:58:22;41.50;33.82;58.82;;
76217;Laerm;65010;50.190;18.930;2023-05-07T05:01:28;37.42;35.58;39.64;;
76217;Laerm;65010;50.190;18.930;2023-05-07T05:04:38;37.34;35.73;43.39;;
76217;Laerm;65010;50.190;18.930;2023-05-07T05:07:44;37.65;35.72;47.38;;
76217;Laerm;65010;50.190;18.930;2023-05-07T05:10:51;45.82;35.87;64.82;;
76217;Laerm;65010;50.190;18.930;2023-05-07T05:14:01;37.48;35.50;40.60;;
76217;Laerm;65010;50.190;18.930;2023-05-07T05:17:08;45.41;35.70;63.75;;
76217;Laerm;65010;50.190;18.930;2023-05-07T05:20:16;37.88;35.94;45.02;;
76217;Laerm;65010;50.190;18.930;2023-05-07T05:23:24;47.40;34.66;67.49;;
76217;Laerm;65010;50.190;18.930;2023-05-07T05:26:30;36.40;33.63;47.64;;
76217;Laerm;65010;50.190;18.930;2023-05-07T05:29:40;43.86;33.90;68.13;;
76217;Laerm;65010;50.190;18.930;2023-05-07T05:32:46;42.87;33.86;60.75;;
76217;Laerm;65010;50.190;18.930;2023-05-07T05:35:56;40.98;34.36;61.85;;
76217;Laerm;65010;50.190;18.930;2023-05-07T05:39:02;43.50;34.41;61.91;;
76217;Laerm;65010;50.190;18.930;2023-05-07T05:42:09;42.38;34.55;60.82;;
76217;Laerm;65010;50.190;18.930;2023-05-07T05:45:15;45.92;34.32;67.49;;
76217;Laerm;65010;50.190;18.930;2023-05-07T05:48:22;43.60;34.55;64.09;;
76217;Laerm;65010;50.190;18.930;2023-05-07T05:51:31;48.18;34.43;68.90;;
76217;Laerm;65010;50.190;18.930;2023-05-07T05:54:37;45.49;34.69;66.13;;
76217;Laerm;65010;50.190;18.930;2023-05-07T05:57:43;44.82;34.30;62.10;;
76217;Laerm;65010;50.190;18.930;2023-05-07T06:00:50;38.11;34.31;55.87;;
76217;Laerm;65010;50.190;18.930;2023-05-07T06:03:59;45.23;34.17;66.70;;
76217;Laerm;65010;50.190;18.930;2023-05-07T06:07:08;39.80;34.11;59.15;;
76217;Laerm;65010;50.190;18.930;2023-05-07T06:10:14;35.50;33.98;44.20;;
76217;Laerm;65010;50.190;18.930;2023-05-07T06:13:21;44.08;34.03;61.63;;
76217;Laerm;65010;50.190;18.930;2023-05-07T06:16:29;35.60;33.77;52.82;;
76217;Laerm;65010;50.190;18.930;2023-05-07T06:19:36;35.69;33.72;44.06;;
76217;Laerm;65010;50.190;18.930;2023-05-07T06:22:44;41.01;34.21;59.98;;
76217;Laerm;65010;50.190;18.930;2023-05-07T06:25:52;37.87;34.62;47.18;;
76217;Laerm;65010;50.190;18.930;2023-05-07T06:29:06;36.52;34.54;48.43;;
76217;Laerm;65010;50.190;18.930;2023-05-07T06:32:14;41.52;34.98;59.34;;
76217;Laerm;65010;50.190;18.930;2023-05-07T06:35:21;37.05;34.92;58.72;;
76217;Laerm;65010;50.190;18.930;2023-05-07T06:38:31;36.80;34.44;43.89;;
76217;Laerm;65010;50.190;18.930;2023-05-07T06:41:37;36.91;33.98;50.39;;
76217;Laerm;65010;50.190;18.930;2023-05-07T06:44:52;40.38;33.61;60.64;;
76217;Laerm;65010;50.190;18.930;2023-05-07T06:47:58;40.91;33.55;59.55;;
76217;Laerm;65010;50.190;18.930;2023-05-07T06:51:11;40.45;34.36;60.02;;
76217;Laerm;65010;50.190;18.930;2023-05-07T06:54:19;36.22;34.49;42.35;;
76217;Laerm;65010;50.190;18.930;2023-05-07T06:57:27;38.42;34.33;54.07;;
76217;Laerm;65010;50.190;18.930;2023-05-07T07:00:40;35.81;34.08;43.41;;
76217;Laerm;65010;50.190;18.930;2023-05-07T07:03:48;43.86;34.08;61.14;;
76217;Laerm;65010;50.190;18.930;2023-05-07T07:06:56;48.44;34.13;62.98;;
76217;Laerm;65010;50.190;18.930;2023-05-07T07:10:09;42.70;33.99;60.06;;
76217;Laerm;65010;50.190;18.930;2023-05-07T07:13:15;37.20;34.03;58.53;;
76217;Laerm;65010;50.190;18.930;2023-05-07T07:16:22;44.45;34.14;66.47;;
76217;Laerm;65010;50.190;18.930;2023-05-07T07:19:28;47.83;34.29;62.56;;
76217;Laerm;65010;50.190;18.930;2023-05-07T07:22:38;44.17;34.16;63.34;;
76217;Laerm;65010;50.190;18.930;2023-05-07T07:25:50;42.97;34.20;61.92;;
76217;Laerm;65010;50.190;18.930;2023-05-07T07:28:58;39.88;34.21;57.63;;
76217;Laerm;65010;50.190;18.930;2023-05-07T07:32:04;35.91;34.01;49.34;;
76217;Laerm;65010;50.190;18.930;2023-05-07T07:35:13;40.14;34.13;58.36;;
76217;Laerm;65010;50.190;18.930;2023-05-07T07:38:20;36.43;34.12;45.74;;
76217;Laerm;65010;50.190;18.930;2023-05-07T07:41:29;36.44;34.32;45.63;;
76217;Laerm;65010;50.190;18.930;2023-05-07T07:44:38;43.61;34.59;63.95;;
76217;Laerm;65010;50.190;18.930;2023-05-07T07:47:47;36.12;34.38;47.62;;
76217;Laerm;65010;50.190;18.930;2023-05-07T07:50:53;37.23;34.33;50.29;;
76217;Laerm;65010;50.190;18.930;2023-05-07T07:53:59;38.93;34.38;52.98;;
76217;Laerm;65010;50.190;18.930;2023-05-07T07:57:10;43.66;34.44;64.50;;
76217;Laerm;65010;50.190;18.930;2023-05-07T08:00:19;38.90;34.45;54.69;;
76217;Laerm;65010;50.190;18.930;2023-05-07T08:03:29;43.56;34.42;59.82;;
76217;Laerm;65010;50.190;18.930;2023-05-07T08:06:38;39.62;34.52;56.77;;
76217;Laerm;65010;50.190;18.930;2023-05-07T08:09:45;40.91;34.41;60.03;;
76217;Laerm;65010;50.190;18.930;2023-05-07T08:12:56;38.66;34.00;56.40;;
76217;Laerm;65010;50.190;18.930;2023-05-07T08:16:02;56.09;34.53;78.61;;
76217;Laerm;65010;50.190;18.930;2023-05-07T08:19:11;43.51;34.48;63.70;;
76217;Laerm;65010;50.190;18.930;2023-05-07T08:22:17;45.51;34.60;64.05;;
76217;Laerm;65010;50.190;18.930;2023-05-07T08:25:24;44.27;34.68;65.66;;
76217;Laerm;65010;50.190;18.930;2023-05-07T08:28:32;43.57;34.60;57.82;;
76217;Laerm;65010;50.190;18.930;2023-05-07T08:31:39;45.94;34.54;67.82;;
76217;Laerm;65010;50.190;18.930;2023-05-07T08:34:45;42.34;34.47;61.92;;
76217;Laerm;65010;50.190;18.930;2023-05-07T08:37:52;45.94;34.42;64.98;;
76217;Laerm;65010;50.190;18.930;2023-05-07T08:40:58;41.35;34.32;60.06;;
76217;Laerm;65010;50.190;18.930;2023-05-07T08:44:13;43.14;34.65;63.89;;
76217;Laerm;65010;50.190;18.930;2023-05-07T08:47:29;42.57;34.33;59.91;;
76217;Laerm;65010;50.190;18.930;2023-05-07T08:50:42;36.10;34.13;45.44;;
76217;Laerm;65010;50.190;18.930;2023-05-07T08:53:49;43.38;34.09;59.61;;
76217;Laerm;65010;50.190;18.930;2023-05-07T08:57:00;44.58;33.93;61.60;;
76217;Laerm;65010;50.190;18.930;2023-05-07T09:00:13;43.58;33.78;62.65;;
76217;Laerm;65010;50.190;18.930;2023-05-07T09:03:24;42.14;34.08;58.35;;
76217;Laerm;65010;50.190;18.930;2023-05-07T09:07:19;42.91;34.19;63.11;;
76217;Laerm;65010;50.190;18.930;2023-05-07T09:10:26;39.05;34.20;51.07;;
76217;Laerm;65010;50.190;18.930;2023-05-07T09:13:32;38.92;34.32;52.80;;
76217;Laerm;65010;50.190;18.930;2023-05-07T09:16:41;43.28;33.99;62.37;;
76217;Laerm;65010;50.190;18.930;2023-05-07T09:19:48;48.16;34.29;65.96;;
76217;Laerm;65010;50.190;18.930;2023-05-07T09:22:56;37.55;34.09;47.67;;
76217;Laerm;65010;50.190;18.930;2023-05-07T09:26:03;43.96;35.02;65.23;;
76217;Laerm;65010;50.190;18.930;2023-05-07T09:29:17;45.04;34.89;61.40;;
76217;Laerm;65010;50.190;18.930;2023-05-07T09:32:26;42.72;34.74;63.46;;
76217;Laerm;65010;50.190;18.930;2023-05-07T09:35:37;43.09;34.32;60.87;;
76217;Laerm;65010;50.190;18.930;2023-05-07T09:38:51;47.36;34.32;63.61;;
76217;Laerm;65010;50.190;18.930;2023-05-07T09:42:00;47.11;34.26;65.30;;
76217;Laerm;65010;50.190;18.930;2023-05-07T09:45:10;39.59;34.23;55.47;;
76217;Laerm;65010;50.190;18.930;2023-05-07T09:48:21;41.38;34.28;60.40;;
76217;Laerm;65010;50.190;18.930;2023-05-07T09:51:45;43.86;34.60;61.56;;
76217;Laerm;65010;50.190;18.930;2023-05-07T09:54:59;37.54;34.34;55.09;;
76217;Laerm;65010;50.190;18.930;2023-05-07T09:58:09;47.02;34.34;62.81;;
76217;Laerm;65010;50.190;18.930;2023-05-07T10:01:25;45.51;34.50;64.53;;
76217;Laerm;65010;50.190;18.930;2023-05-07T10:04:35;46.44;34.42;63.20;;
76217;Laerm;65010;50.190;18.930;2023-05-07T10:07:46;48.08;34.26;63.85;;
76217;Laerm;65010;50.190;18.930;2023-05-07T10:10:52;46.23;34.32;68.11;;
76217;Laerm;65010;50.190;18.930;2023-05-07T10:14:04;43.86;34.71;60.97;;
76217;Laerm;65010;50.190;18.930;2023-05-07T10:17:13;41.29;34.65;53.50;;
76217;Laerm;65010;50.190;18.930;2023-05-07T10:20:27;46.08;34.68;65.15;;
76217;Laerm;65010;50.190;18.930;2023-05-07T10:23:35;38.89;34.75;48.51;;
76217;Laerm;65010;50.190;18.930;2023-05-07T10:26:48;42.48;34.58;62.44;;
76217;Laerm;65010;50.190;18.930;2023-05-07T10:30:13;40.89;34.52;60.10;;
76217;Laerm;65010;50.190;18.930;2023-05-07T10:33:27;40.29;34.77;59.03;;
76217;Laerm;65010;50.190;18.930;2023-05-07T10:36:38;44.94;34.50;67.70;;
76217;Laerm;65010;50.190;18.930;2023-05-07T10:39:49;44.62;34.69;62.30;;
76217;Laerm;65010;50.190;18.930;2023-05-07T10:42:58;40.69;34.99;55.71;;
76217;Laerm;65010;50.190;18.930;2023-05-07T10:46:16;44.31;34.69;61.84;;
76217;Laerm;65010;50.190;18.930;2023-05-07T10:49:29;45.21;35.14;61.17;;
76217;Laerm;65010;50.190;18.930;2023-05-07T10:52:43;44.28;36.33;63.27;;
76217;Laerm;65010;50.190;18.930;2023-05-07T10:56:26;46.71;36.51;66.19;;
76217;Laerm;65010;50.190;18.930;2023-05-07T10:59:46;45.04;36.39;60.91;;
76217;Laerm;65010;50.190;18.930;2023-05-07T11:03:07;45.89;36.91;60.00;;
76217;Laerm;65010;50.190;18.930;2023-05-07T11:06:31;44.04;37.64;60.78;;
76217;Laerm;65010;50.190;18.930;2023-05-07T11:10:04;47.20;34.68;67.82;;
76217;Laerm;65010;50.190;18.930;2023-05-07T11:13:43;36.51;34.42;49.30;;
76217;Laerm;65010;50.190;18.930;2023-05-07T11:17:16;37.29;34.39;48.73;;
76217;Laerm;65010;50.190;18.930;2023-05-07T11:20:53;40.52;34.63;58.73;;
76217;Laerm;65010;50.190;18.930;2023-05-07T11:24:11;35.94;33.86;47.87;;
76217;Laerm;65010;50.190;18.930;2023-05-07T11:27:36;44.34;33.94;63.39;;
76217;Laerm;65010;50.190;18.930;2023-05-07T11:30:43;44.10;34.71;64.79;;
76217;Laerm;65010;50.190;18.930;2023-05-07T11:33:54;46.84;35.31;64.50;;
76217;Laerm;65010;50.190;18.930;2023-05-07T11:37:01;43.16;34.75;63.98;;
76217;Laerm;65010;50.190;18.930;2023-05-07T11:40:24;47.31;35.26;64.45;;
76217;Laerm;65010;50.190;18.930;2023-05-07T11:43:34;43.82;36.82;60.18;;
76217;Laerm;65010;50.190;18.930;2023-05-07T11:46:44;44.49;36.62;61.10;;
76217;Laerm;65010;50.190;18.930;2023-05-07T11:49:52;44.51;35.95;61.51;;
76217;Laerm;65010;50.190;18.930;2023-05-07T11:52:59;45.16;36.24;62.07;;
76217;Laerm;65010;50.190;18.930;2023-05-07T11:56:10;48.11;36.40;65.48;;
76217;Laerm;65010;50.190;18.930;2023-05-07T11:59:20;42.56;38.10;55.96;;
76217;Laerm;65010;50.190;18.930;2023-05-07T12:02:26;45.69;36.63;63.31;;
76217;Laerm;65010;50.190;18.930;2023-05-07T12:05:36;46.44;36.22;68.50;;
76217;Laerm;65010;50.190;18.930;2023-05-07T12:08:46;37.05;34.18;44.95;;
76217;Laerm;65010;50.190;18.930;2023-05-07T12:11:53;42.64;34.44;62.13;;
76217;Laerm;65010;50.190;18.930;2023-05-07T12:15:01;45.39;34.41;64.29;;
76217;Laerm;65010;50.190;18.930;2023-05-07T12:18:09;45.30;34.35;63.48;;
76217;Laerm;65010;50.190;18.930;2023-05-07T12:21:18;41.19;34.39;59.92;;
76217;Laerm;65010;50.190;18.930;2023-05-07T12:24:25;39.50;34.54;53.23;;
76217;Laerm;65010;50.190;18.930;2023-05-07T12:27:31;38.95;34.47;54.41;;
76217;Laerm;65010;50.190;18.930;2023-05-07T12:30:47;45.62;34.77;62.50;;
76217;Laerm;65010;50.190;18.930;2023-05-07T12:33:56;45.75;34.75;65.94;;
76217;Laerm;65010;50.190;18.930;2023-05-07T12:37:05;44.88;34.65;63.42;;
76217;Laerm;65010;50.190;18.930;2023-05-07T12:40:18;42.82;34.68;60.22;;
76217;Laerm;65010;50.190;18.930;2023-05-07T12:43:31;37.33;34.50;47.10;;
76217;Laerm;65010;50.190;18.930;2023-05-07T12:46:41;43.41;34.50;60.81;;
76217;Laerm;65010;50.190;18.930;2023-05-07T12:49:48;36.41;34.49;46.02;;
76217;Laerm;65010;50.190;18.930;2023-05-07T12:52:54;36.89;34.59;46.90;;
76217;Laerm;65010;50.190;18.930;2023-05-07T12:56:01;43.59;34.57;62.71;;
76217;Laerm;65010;50.190;18.930;2023-05-07T12:59:07;44.30;34.46;60.97;;
76217;Laerm;65010;50.190;18.930;2023-05-07T13:02:16;45.60;34.48;65.62;;
76217;Laerm;65010;50.190;18.930;2023-05-07T13:05:22;36.82;34.18;49.92;;
76217;Laerm;65010;50.190;18.930;2023-05-07T13:08:31;41.54;34.54;60.72;;
76217;Laerm;65010;50.190;18.930;2023-05-07T13:11:45;45.45;34.61;64.14;;
76217;Laerm;65010;50.190;18.930;2023-05-07T13:14:51;47.71;34.70;67.44;;
76217;Laerm;65010;50.190;18.930;2023-05-07T13:17:59;44.63;34.27;61.95;;
76217;Laerm;65010;50.190;18.930;2023-05-07T13:21:06;47.08;34.66;62.08;;
76217;Laerm;65010;50.190;18.930;2023-05-07T13:24:14;47.36;34.58;71.21;;
76217;Laerm;65010;50.190;18.930;2023-05-07T13:27:23;46.63;34.59;63.44;;
76217;Laerm;65010;50.190;18.930;2023-05-07T13:30:29;44.02;34.58;62.15;;
76217;Laerm;65010;50.190;18.930;2023-05-07T13:33:38;43.50;34.53;60.97;;
76217;Laerm;65010;50.190;18.930;2023-05-07T13:36:47;44.62;34.48;64.24;;
76217;Laerm;65010;50.190;18.930;2023-05-07T13:39:54;44.47;34.37;62.51;;
76217;Laerm;65010;50.190;18.930;2023-05-07T13:43:00;42.65;34.73;66.19;;
76217;Laerm;65010;50.190;18.930;2023-05-07T13:46:07;42.05;36.24;59.72;;
76217;Laerm;65010;50.190;18.930;2023-05-07T13:49:15;44.67;36.51;60.74;;
76217;Laerm;65010;50.190;18.930;2023-05-07T13:52:22;42.97;36.25;62.56;;
76217;Laerm;65010;50.190;18.930;2023-05-07T13:55:29;44.80;36.65;63.07;;
76217;Laerm;65010;50.190;18.930;2023-05-07T13:58:36;44.19;37.87;61.36;;
76217;Laerm;65010;50.190;18.930;2023-05-07T14:01:58;46.29;37.76;64.87;;
76217;Laerm;65010;50.190;18.930;2023-05-07T14:05:08;39.44;36.54;46.02;;
76217;Laerm;65010;50.190;18.930;2023-05-07T14:08:16;40.57;36.13;56.08;;
76217;Laerm;65010;50.190;18.930;2023-05-07T14:11:23;38.66;35.94;46.61;;
76217;Laerm;65010;50.190;18.930;2023-05-07T14:14:29;49.47;36.59;72.45;;
76217;Laerm;65010;50.190;18.930;2023-05-07T14:17:36;46.33;36.46;62.56;;
76217;Laerm;65010;50.190;18.930;2023-05-07T14:20:44;47.25;36.27;62.91;;
76217;Laerm;65010;50.190;18.930;2023-05-07T14:23:52;41.66;36.55;59.04;;
76217;Laerm;65010;50.190;18.930;2023-05-07T14:26:59;44.49;34.38;62.24;;
76217;Laerm;65010;50.190;18.930;2023-05-07T14:30:07;43.93;34.29;63.99;;
76217;Laerm;65010;50.190;18.930;2023-05-07T14:33:13;46.83;34.89;66.16;;
76217;Laerm;65010;50.190;18.930;2023-05-07T14:36:22;43.55;34.89;62.67;;
76217;Laerm;65010;50.190;18.930;2023-05-07T14:39:28;45.35;35.26;61.88;;
76217;Laerm;65010;50.190;18.930;2023-05-07T14:42:35;45.21;36.56;61.74;;
76217;Laerm;65010;50.190;18.930;2023-05-07T14:45:41;48.16;36.56;63.18;;
76217;Laerm;65010;50.190;18.930;2023-05-07T14:48:48;47.46;36.56;64.50;;
76217;Laerm;65010;50.190;18.930;2023-05-07T14:51:58;44.88;36.74;63.92;;
76217;Laerm;65010;50.190;18.930;2023-05-07T14:55:06;44.89;36.47;64.33;;
76217;Laerm;65010;50.190;18.930;2023-05-07T14:58:13;44.80;36.33;65.18;;
76217;Laerm;65010;50.190;18.930;2023-05-07T15:01:20;46.41;36.54;62.93;;
76217;Laerm;65010;50.190;18.930;2023-05-07T15:04:27;42.94;36.54;61.00;;
76217;Laerm;65010;50.190;18.930;2023-05-07T15:07:36;42.22;34.68;58.83;;
76217;Laerm;65010;50.190;18.930;2023-05-07T15:10:42;44.41;34.50;62.42;;
76217;Laerm;65010;50.190;18.930;2023-05-07T15:13:50;45.17;35.00;60.72;;
76217;Laerm;65010;50.190;18.930;2023-05-07T15:16:56;41.73;34.74;65.08;;
76217;Laerm;65010;50.190;18.930;2023-05-07T15:20:04;36.77;34.62;47.58;;
76217;Laerm;65010;50.190;18.930;2023-05-07T15:23:13;39.40;34.40;56.98;;
76217;Laerm;65010;50.190;18.930;2023-05-07T15:26:23;45.12;34.57;60.64;;
76217;Laerm;65010;50.190;18.930;2023-05-07T15:29:29;41.19;34.63;59.23;;
76217;Laerm;65010;50.190;18.930;2023-05-07T15:32:37;39.41;34.44;56.84;;
76217;Laerm;65010;50.190;18.930;2023-05-07T15:35:44;43.68;34.88;65.96;;
76217;Laerm;65010;50.190;18.930;2023-05-07T15:38:56;44.38;34.80;61.58;;
76217;Laerm;65010;50.190;18.930;2023-05-07T15:42:04;39.30;34.45;56.22;;
76217;Laerm;65010;50.190;18.930;2023-05-07T15:45:12;43.08;34.65;59.22;;
76217;Laerm;65010;50.190;18.930;2023-05-07T15:48:17;38.63;34.95;60.06;;
76217;Laerm;65010;50.190;18.930;2023-05-07T15:51:24;43.61;34.68;63.42;;
76217;Laerm;65010;50.190;18.930;2023-05-07T15:54:33;46.20;34.34;65.39;;
76217;Laerm;65010;50.190;18.930;2023-05-07T15:57:41;41.65;34.15;57.68;;
76217;Laerm;65010;50.190;18.930;2023-05-07T16:00:46;47.10;34.01;66.75;;
76217;Laerm;65010;50.190;18.930;2023-05-07T16:03:53;44.40;34.01;62.53;;
76217;Laerm;65010;50.190;18.930;2023-05-07T16:06:59;45.79;34.10;66.01;;
76217;Laerm;65010;50.190;18.930;2023-05-07T16:10:11;42.66;34.93;59.11;;
76217;Laerm;65010;50.190;18.930;2023-05-07T16:13:16;45.22;35.23;60.11;;
76217;Laerm;65010;50.190;18.930;2023-05-07T16:16:24;59.13;35.00;78.60;;
76217;Laerm;65010;50.190;18.930;2023-05-07T16:19:31;46.28;34.95;62.77;;
76217;Laerm;65010;50.190;18.930;2023-05-07T16:22:38;42.59;35.03;62.78;;
76217;Laerm;65010;50.190;18.930;2023-05-07T16:25:47;46.30;34.83;68.29;;
76217;Laerm;65010;50.190;18.930;2023-05-07T16:28:54;44.07;34.94;63.16;;
76217;Laerm;65010;50.190;18.930;2023-05-07T16:32:00;41.78;34.25;60.55;;
76217;Laerm;65010;50.190;18.930;2023-05-07T16:35:08;45.20;34.13;62.68;;
76217;Laerm;65010;50.190;18.930;2023-05-07T16:38:15;46.06;33.90;62.87;;
76217;Laerm;65010;50.190;18.930;2023-05-07T16:41:24;46.03;34.78;65.95;;
76217;Laerm;65010;50.190;18.930;2023-05-07T16:44:30;43.05;34.81;59.80;;
76217;Laerm;65010;50.190;18.930;2023-05-07T16:47:36;46.68;34.50;67.12;;
76217;Laerm;65010;50.190;18.930;2023-05-07T16:50:42;49.69;34.37;66.71;;
76217;Laerm;65010;50.190;18.930;2023-05-07T16:53:58;46.44;34.68;64.85;;
76217;Laerm;65010;50.190;18.930;2023-05-07T16:57:09;43.08;34.60;58.54;;
76217;Laerm;65010;50.190;18.930;2023-05-07T17:00:17;44.10;34.51;63.09;;
76217;Laerm;65010;50.190;18.930;2023-05-07T17:03:23;41.42;34.45;61.82;;
76217;Laerm;65010;50.190;18.930;2023-05-07T17:06:29;37.00;34.47;49.09;;
76217;Laerm;65010;50.190;18.930;2023-05-07T17:09:35;37.38;34.71;48.35;;
76217;Laerm;65010;50.190;18.930;2023-05-07T17:12:45;47.73;34.52;70.35;;
76217;Laerm;65010;50.190;18.930;2023-05-07T17:15:50;46.19;34.65;66.76;;
76217;Laerm;65010;50.190;18.930;2023-05-07T17:18:57;42.26;34.72;59.53;;
76217;Laerm;65010;50.190;18.930;2023-05-07T17:22:03;49.17;34.57;65.16;;
76217;Laerm;65010;50.190;18.930;2023-05-07T17:25:10;36.81;34.45;49.89;;